createdAt,value
2023-01-29T00:00:17.494Z,97996.59
2023-01-29T00:01:38.291Z,97998.94
2023-01-29T00:02:59.047Z,98001.13
2023-01-29T00:04:20.608Z,98000.31
2023-01-29T00:05:47.255Z,98008.03
2023-01-29T00:07:08.287Z,98010.69
2023-01-29T00:08:29.055Z,98007.78
2023-01-29T00:09:50.136Z,98006.22
2023-01-29T00:11:11.195Z,98001.44
2023-01-29T00:12:31.991Z,97994.25
2023-01-29T00:13:52.873Z,97991.28
2023-01-29T00:15:13.461Z,97990.22
2023-01-29T00:16:34.408Z,97997.13
2023-01-29T00:17:57.682Z,97995.81
2023-01-29T00:19:18.736Z,98008.31
2023-01-29T00:20:43.259Z,98007.25
2023-01-29T00:22:06.821Z,97997.94
2023-01-29T00:23:27.541Z,98001.97
2023-01-29T00:24:50.492Z,97994.72
2023-01-29T00:26:11.302Z,97993.69
2023-01-29T00:27:38.085Z,97991.28
2023-01-29T00:28:58.870Z,97995.25
2023-01-29T00:30:21.831Z,98004.03
2023-01-29T00:31:45.681Z,98004.03
2023-01-29T00:33:09.906Z,97998.94
2023-01-29T00:34:30.388Z,97989.69
2023-01-29T00:35:50.888Z,97993.94
2023-01-29T00:37:14.492Z,97994.19
2023-01-29T00:38:38.505Z,97999.81
2023-01-29T00:40:01.392Z,97996.59
2023-01-29T00:41:22.020Z,97989.97
2023-01-29T00:42:45.549Z,97992.06
2023-01-29T00:44:09.309Z,97994.72
2023-01-29T00:45:29.910Z,97989.41
2023-01-29T00:46:51.083Z,97990.97
2023-01-29T00:48:12.109Z,97984.84
2023-01-29T00:49:32.877Z,97983.25
2023-01-29T00:50:53.621Z,97983.81
2023-01-29T00:52:19.147Z,97985.94
2023-01-29T00:53:42.015Z,97989.94
2023-01-29T00:55:05.404Z,97988.59
2023-01-29T00:56:29.266Z,97989.16
2023-01-29T00:57:50.299Z,97988.38
2023-01-29T00:59:11.152Z,97984.09
2023-01-29T01:00:31.629Z,97977.41
2023-01-29T01:01:52.286Z,97979.59
2023-01-29T01:03:13.087Z,97971.84
2023-01-29T01:04:35.072Z,97980.63
2023-01-29T01:06:04.532Z,97974.50
2023-01-29T01:07:28.703Z,97973.72
2023-01-29T01:08:52.268Z,97973.97
2023-01-29T01:10:15.155Z,97979.53
2023-01-29T01:11:39.544Z,97977.09
2023-01-29T01:13:01.249Z,97980.06
2023-01-29T01:14:21.750Z,97982.75
2023-01-29T01:15:44.669Z,97981.69
2023-01-29T01:17:05.406Z,97990.22
2023-01-29T01:18:29.277Z,97991.53
2023-01-29T01:19:52.237Z,97979.81
2023-01-29T01:21:13.531Z,97979.53
2023-01-29T01:22:37.066Z,97976.88
2023-01-29T01:23:57.689Z,97969.94
2023-01-29T01:25:18.222Z,97975.31
2023-01-29T01:26:39.073Z,97978.47
2023-01-29T01:29:20.575Z,97987.81
2023-01-29T01:30:41.470Z,97981.69
2023-01-29T01:32:02.491Z,97980.88
2023-01-29T01:33:23.573Z,97978.22
2023-01-29T01:34:44.492Z,97978.75
2023-01-29T01:36:08.345Z,97975.31
2023-01-29T01:37:29.264Z,97976.09
2023-01-29T01:38:54.865Z,97975.53
2023-01-29T01:40:16.939Z,97971.28
2023-01-29T01:41:37.695Z,97965.44
2023-01-29T01:43:01.486Z,97964.16
2023-01-29T01:44:37.165Z,97962.78
2023-01-29T01:45:57.963Z,97955.06
2023-01-29T01:47:20.704Z,97959.56
2023-01-29T01:48:41.553Z,97951.34
2023-01-29T01:50:04.617Z,97957.19
2023-01-29T01:51:28.774Z,97947.09
2023-01-29T01:52:52.061Z,97953.47
2023-01-29T01:54:18.706Z,97951.03
2023-01-29T01:55:41.057Z,97955.56
2023-01-29T01:57:05.648Z,97950.00
2023-01-29T01:58:27.946Z,97955.06
2023-01-29T01:59:51.572Z,97948.94
2023-01-29T02:01:13.000Z,97951.34
2023-01-29T02:02:33.964Z,97953.69
2023-01-29T02:03:56.815Z,97943.59
2023-01-29T02:05:17.849Z,97951.00
2023-01-29T02:06:40.288Z,97942.78
2023-01-29T02:08:01.091Z,97950.78
2023-01-29T02:09:29.272Z,97949.94
2023-01-29T02:10:52.031Z,97948.09
2023-01-29T02:12:14.223Z,97953.16
2023-01-29T02:13:34.895Z,97950.50
2023-01-29T02:14:55.557Z,97953.44
2023-01-29T02:16:18.381Z,97951.31
2023-01-29T02:17:39.084Z,97953.16
2023-01-29T02:19:02.427Z,97959.31
2023-01-29T02:20:24.675Z,97969.94
2023-01-29T02:21:59.675Z,97972.63
2023-01-29T02:23:37.942Z,97972.63
2023-01-29T02:25:14.215Z,97964.88
2023-01-29T02:26:50.090Z,97977.09
2023-01-29T02:28:30.847Z,97971.78
2023-01-29T02:30:02.360Z,97971.78
2023-01-29T02:31:25.716Z,97967.28
2023-01-29T02:32:49.992Z,97964.88
2023-01-29T02:34:16.395Z,97965.66
2023-01-29T02:35:41.908Z,97968.34
2023-01-29T02:37:08.000Z,97969.13
2023-01-29T02:38:36.356Z,97971.78
2023-01-29T02:40:02.205Z,97968.34
2023-01-29T02:41:26.620Z,97969.13
2023-01-29T02:42:53.041Z,97969.94
2023-01-29T02:44:18.840Z,97966.47
2023-01-29T02:45:47.114Z,97976.31
2023-01-29T02:47:13.108Z,97971.53
2023-01-29T02:48:39.571Z,97964.34
2023-01-29T02:50:04.157Z,97976.06
2023-01-29T02:51:29.285Z,97974.44
2023-01-29T02:52:55.316Z,97973.41
2023-01-29T02:54:20.398Z,97975.00
2023-01-29T02:55:43.906Z,97968.56
2023-01-29T02:57:09.659Z,97968.34
2023-01-29T02:58:38.466Z,97968.88
2023-01-29T03:00:03.357Z,97965.41
2023-01-29T03:01:28.660Z,97963.81
2023-01-29T03:02:53.552Z,97959.31
2023-01-29T03:04:18.451Z,97960.03
2023-01-29T03:05:42.496Z,97960.88
2023-01-29T03:07:03.912Z,97964.06
2023-01-29T03:08:30.180Z,97965.66
2023-01-29T03:09:53.709Z,97961.66
2023-01-29T03:11:15.774Z,97956.59
2023-01-29T03:12:39.138Z,97953.44
2023-01-29T03:14:03.413Z,97956.34
2023-01-29T03:15:26.471Z,97955.03
2023-01-29T03:17:07.325Z,97953.16
2023-01-29T03:18:32.210Z,97947.03
2023-01-29T03:19:56.189Z,97951.56
2023-01-29T03:21:20.337Z,97954.22
2023-01-29T03:22:45.438Z,97951.56
2023-01-29T03:24:08.937Z,97944.63
2023-01-29T03:25:30.802Z,97947.28
2023-01-29T03:26:52.699Z,97945.44
2023-01-29T03:28:17.948Z,97949.16
2023-01-29T03:29:42.303Z,97951.81
2023-01-29T03:31:04.607Z,97960.59
2023-01-29T03:32:37.284Z,97963.78
2023-01-29T03:34:00.034Z,97967.78
2023-01-29T03:35:23.518Z,97965.91
2023-01-29T03:36:51.702Z,97966.19
2023-01-29T03:38:12.310Z,97962.22
2023-01-29T03:39:33.259Z,97964.31
2023-01-29T03:40:59.684Z,97965.91
2023-01-29T03:42:24.652Z,97970.19
2023-01-29T03:43:50.787Z,97968.34
2023-01-29T03:45:17.356Z,97970.19
2023-01-29T03:46:46.581Z,97973.66
2023-01-29T03:48:11.418Z,97978.97
2023-01-29T03:49:36.141Z,97981.09
2023-01-29T03:51:01.891Z,97984.81
2023-01-29T03:52:27.384Z,97984.00
2023-01-29T03:53:53.618Z,97984.81
2023-01-29T03:55:15.689Z,97989.63
2023-01-29T03:56:44.333Z,97990.94
2023-01-29T03:58:08.418Z,97989.63
2023-01-29T03:59:35.902Z,97986.97
2023-01-29T04:01:11.481Z,97989.38
2023-01-29T04:02:38.069Z,97994.91
2023-01-29T04:04:12.401Z,97993.59
2023-01-29T04:05:44.867Z,97997.31
2023-01-29T04:07:21.858Z,97992.28
2023-01-29T04:08:53.951Z,97991.50
2023-01-29T04:10:16.984Z,97986.41
2023-01-29T04:11:39.967Z,97986.41
2023-01-29T04:13:03.197Z,97984.81
2023-01-29T04:14:24.162Z,97980.03
2023-01-29T04:15:49.686Z,97985.38
2023-01-29T04:17:14.925Z,97988.03
2023-01-29T04:18:45.064Z,97986.16
2023-01-29T04:20:12.558Z,97976.31
2023-01-29T04:21:35.497Z,97971.25
2023-01-29T04:22:56.267Z,97973.41
2023-01-29T04:24:17.139Z,97981.09
2023-01-29T04:25:43.487Z,97980.84
2023-01-29T04:27:11.494Z,97988.81
2023-01-29T04:28:46.015Z,97990.94
2023-01-29T04:30:13.614Z,97983.25
2023-01-29T04:31:43.861Z,97998.94
2023-01-29T04:33:11.411Z,97995.25
2023-01-29T04:34:40.438Z,98000.81
2023-01-29T04:36:13.985Z,97993.34
2023-01-29T04:37:36.789Z,97996.56
2023-01-29T04:39:04.348Z,97994.94
2023-01-29T04:40:27.174Z,97996.56
2023-01-29T04:41:50.331Z,97978.97
2023-01-29T04:43:16.327Z,97993.91
2023-01-29T04:44:40.069Z,97987.50
2023-01-29T04:46:09.894Z,97989.63
2023-01-29T04:47:35.263Z,97990.41
2023-01-29T04:49:09.617Z,97993.34
2023-01-29T04:50:34.899Z,97996.81
2023-01-29T04:52:07.744Z,97993.34
2023-01-29T04:53:30.783Z,98000.50
2023-01-29T04:54:57.392Z,97994.94
2023-01-29T04:56:21.416Z,97994.16
2023-01-29T04:57:46.152Z,97992.53
2023-01-29T04:59:09.381Z,97992.28
2023-01-29T05:00:32.004Z,97988.81
2023-01-29T05:01:52.996Z,97987.47
2023-01-29T05:03:16.388Z,97986.41
2023-01-29T05:04:38.928Z,97980.03
2023-01-29T05:06:00.759Z,97988.03
2023-01-29T05:07:24.372Z,97984.53
2023-01-29T05:08:46.031Z,97989.06
2023-01-29T05:10:08.343Z,97986.97
2023-01-29T05:11:30.828Z,97981.09
2023-01-29T05:12:52.594Z,97977.09
2023-01-29T05:14:13.795Z,97977.09
2023-01-29T05:15:37.230Z,97970.97
2023-01-29T05:17:03.249Z,97969.41
2023-01-29T05:18:23.841Z,97966.19
2023-01-29T05:19:44.994Z,97963.25
2023-01-29T05:21:09.413Z,97963.25
2023-01-29T05:22:32.918Z,97960.03
2023-01-29T05:24:10.595Z,97961.41
2023-01-29T05:25:32.378Z,97968.56
2023-01-29T05:26:54.534Z,97962.47
2023-01-29T05:28:15.424Z,97972.06
2023-01-29T05:29:35.900Z,97973.09
2023-01-29T05:30:57.539Z,97967.47
2023-01-29T05:32:18.229Z,97968.03
2023-01-29T05:33:39.037Z,97976.00
2023-01-29T05:34:59.708Z,97967.22
2023-01-29T05:36:20.560Z,97967.16
2023-01-29T05:37:43.915Z,97964.81
2023-01-29T05:39:07.131Z,97956.59
2023-01-29T05:40:30.441Z,97964.25
2023-01-29T05:41:53.621Z,97969.91
2023-01-29T05:43:15.465Z,97965.63
2023-01-29T05:44:36.329Z,97962.16
2023-01-29T05:45:59.969Z,97969.91
2023-01-29T05:47:23.379Z,97969.09
2023-01-29T05:48:44.006Z,97986.94
2023-01-29T05:50:05.032Z,97986.34
2023-01-29T05:51:25.824Z,97990.09
2023-01-29T05:52:49.489Z,97992.75
2023-01-29T05:54:11.132Z,97988.22
2023-01-29T05:55:31.622Z,97989.00
2023-01-29T05:56:52.476Z,97984.28
2023-01-29T05:58:16.204Z,97988.22
2023-01-29T05:59:37.114Z,97988.22
2023-01-29T06:00:57.586Z,97989.59
2023-01-29T06:02:21.446Z,97982.91
2023-01-29T06:03:45.007Z,97980.00
2023-01-29T06:05:06.304Z,97970.13
2023-01-29T06:06:29.383Z,97974.41
2023-01-29T06:07:55.186Z,97979.50
2023-01-29T06:09:16.229Z,97974.72
2023-01-29T06:10:39.937Z,97971.53
2023-01-29T06:12:03.130Z,97977.09
2023-01-29T06:13:23.976Z,97966.22
2023-01-29T06:14:46.898Z,97957.19
2023-01-29T06:16:08.144Z,97947.28
2023-01-29T06:17:28.943Z,97942.00
2023-01-29T06:18:52.611Z,97946.25
2023-01-29T06:20:15.816Z,97945.47
2023-01-29T06:21:36.839Z,97942.81
2023-01-29T06:23:00.313Z,97943.59
2023-01-29T06:24:21.242Z,97939.09
2023-01-29T06:25:42.364Z,97932.97
2023-01-29T06:27:05.541Z,97937.00
2023-01-29T06:28:26.366Z,97933.78
2023-01-29T06:29:47.228Z,97931.91
2023-01-29T06:31:37.283Z,97927.38
2023-01-29T06:32:49.022Z,97919.66
2023-01-29T06:34:09.961Z,97925.50
2023-01-29T06:35:31.080Z,97923.38
2023-01-29T06:36:54.439Z,97918.59
2023-01-29T06:38:17.659Z,97930.06
2023-01-29T06:39:38.444Z,97924.19
2023-01-29T06:41:08.186Z,97927.63
2023-01-29T06:42:31.289Z,97932.16
2023-01-29T06:43:54.095Z,97937.50
2023-01-29T06:45:14.789Z,97932.97
2023-01-29T06:46:37.591Z,97932.72
2023-01-29T06:48:00.513Z,97929.47
2023-01-29T06:49:22.148Z,97944.44
2023-01-29T06:50:43.236Z,97939.91
2023-01-29T06:52:03.711Z,97946.03
2023-01-29T06:53:26.865Z,97946.25
2023-01-29T06:54:47.632Z,97951.34
2023-01-29T06:56:10.328Z,97954.25
2023-01-29T06:57:33.016Z,97954.53
2023-01-29T06:58:53.638Z,97960.66
2023-01-29T07:00:15.239Z,97960.34
2023-01-29T07:01:38.904Z,97968.88
2023-01-29T07:02:59.724Z,97969.66
2023-01-29T07:04:20.426Z,97966.22
2023-01-29T07:05:43.345Z,97966.75
2023-01-29T07:07:03.952Z,97971.03
2023-01-29T07:08:27.535Z,97978.75
2023-01-29T07:09:48.332Z,97979.59
2023-01-29T07:11:11.684Z,97972.88
2023-01-29T07:12:32.604Z,97981.94
2023-01-29T07:13:53.536Z,97984.84
2023-01-29T07:15:14.423Z,97982.97
2023-01-29T07:16:35.307Z,97977.94
2023-01-29T07:17:58.819Z,97992.03
2023-01-29T07:19:19.531Z,97993.34
2023-01-29T07:20:43.227Z,97986.47
2023-01-29T07:22:04.044Z,97986.75
2023-01-29T07:23:28.133Z,97987.81
2023-01-29T07:24:49.039Z,97991.53
2023-01-29T07:26:10.290Z,97983.28
2023-01-29T07:27:33.308Z,97975.31
2023-01-29T07:28:54.065Z,97983.53
2023-01-29T07:30:17.808Z,97980.06
2023-01-29T07:31:38.869Z,97974.19
2023-01-29T07:33:01.711Z,97974.75
2023-01-29T07:34:22.592Z,97976.38
2023-01-29T07:35:43.409Z,97981.69
2023-01-29T07:37:06.514Z,97978.22
2023-01-29T07:38:32.043Z,97981.16
2023-01-29T07:39:53.004Z,97984.59
2023-01-29T07:41:13.985Z,97985.41
2023-01-29T07:42:39.103Z,97979.03
2023-01-29T07:44:00.291Z,97987.56
2023-01-29T07:45:21.123Z,97977.66
2023-01-29T07:46:41.685Z,97976.06
2023-01-29T07:48:05.997Z,97985.41
2023-01-29T07:49:29.030Z,97987.50
2023-01-29T07:50:54.563Z,97985.66
2023-01-29T07:52:17.565Z,97983.81
2023-01-29T07:53:43.626Z,97985.66
2023-01-29T07:55:05.142Z,97990.97
2023-01-29T07:56:25.988Z,97992.03
2023-01-29T07:57:46.816Z,97992.84
2023-01-29T07:59:09.516Z,97996.56
2023-01-29T08:00:30.862Z,97997.59
2023-01-29T08:01:51.495Z,97989.13
2023-01-29T08:03:15.561Z,97992.84
2023-01-29T08:04:38.669Z,97993.63
2023-01-29T08:05:59.403Z,97995.25
2023-01-29T08:07:23.083Z,97995.25
2023-01-29T08:08:46.500Z,97999.78
2023-01-29T08:10:07.836Z,98005.91
2023-01-29T08:11:28.614Z,98005.09
2023-01-29T08:12:53.468Z,98013.63
2023-01-29T08:14:14.131Z,98017.88
2023-01-29T08:15:39.188Z,98020.78
2023-01-29T08:17:02.391Z,98026.66
2023-01-29T08:18:26.194Z,98021.34
2023-01-29T08:19:47.420Z,98025.63
2023-01-29T08:21:09.291Z,98026.66
2023-01-29T08:22:30.022Z,98030.16
2023-01-29T08:23:53.621Z,98026.66
2023-01-29T08:25:15.134Z,98025.88
2023-01-29T08:26:36.158Z,98024.84
2023-01-29T08:28:00.156Z,98025.09
2023-01-29T08:29:21.064Z,98025.09
2023-01-29T08:30:42.352Z,98010.16
2023-01-29T08:32:03.429Z,98014.97
2023-01-29T08:33:37.170Z,98012.81
2023-01-29T08:35:02.042Z,98016.78
2023-01-29T08:36:22.933Z,98023.22
2023-01-29T08:37:52.499Z,98029.63
2023-01-29T08:39:16.071Z,98032.56
2023-01-29T08:40:36.965Z,98036.34
2023-01-29T08:41:57.847Z,98031.81
2023-01-29T08:43:18.769Z,98034.16
2023-01-29T08:44:39.678Z,98039.75
2023-01-29T08:46:03.742Z,98043.00
2023-01-29T08:47:24.995Z,98046.72
2023-01-29T08:48:45.987Z,98052.34
2023-01-29T08:50:09.816Z,98056.09
2023-01-29T08:51:30.668Z,98052.09
2023-01-29T08:52:51.738Z,98056.34
2023-01-29T08:54:12.459Z,98046.25
2023-01-29T08:55:36.178Z,98054.25
2023-01-29T08:56:57.080Z,98056.34
2023-01-29T08:58:18.052Z,98064.09
2023-01-29T08:59:38.938Z,98065.16
2023-01-29T09:01:05.590Z,98062.19
2023-01-29T09:02:26.238Z,98068.63
2023-01-29T09:03:47.016Z,98078.72
2023-01-29T09:05:08.780Z,98075.53
2023-01-29T09:06:29.739Z,98074.75
2023-01-29T09:07:52.621Z,98077.16
2023-01-29T09:09:14.051Z,98073.16
2023-01-29T09:10:37.192Z,98068.63
2023-01-29T09:11:58.082Z,98067.28
2023-01-29T09:13:19.368Z,98072.09
2023-01-29T09:14:40.540Z,98068.88
2023-01-29T09:16:01.743Z,98065.00
2023-01-29T09:17:22.370Z,98067.56
2023-01-29T09:18:42.997Z,98061.94
2023-01-29T09:20:07.327Z,98065.41
2023-01-29T09:32:58.254Z,98042.25
2023-01-29T09:34:22.672Z,98042.06
2023-01-29T09:35:44.561Z,98048.06
2023-01-29T09:37:06.104Z,98041.25
2023-01-29T09:38:27.665Z,98046.13
2023-01-29T09:39:52.302Z,98046.31
2023-01-29T09:41:34.053Z,98045.13
2023-01-29T09:43:01.132Z,98051.53
2023-01-29T09:44:35.192Z,98046.69
2023-01-29T09:46:02.670Z,98041.47
2023-01-29T09:47:26.823Z,98033.19
2023-01-29T09:49:13.406Z,98037.31
2023-01-29T09:50:41.481Z,98041.88
2023-01-29T09:52:12.720Z,98044.91
2023-01-29T09:53:43.177Z,98041.59
2023-01-29T09:55:12.775Z,98039.78
2023-01-29T09:59:25.383Z,98026.38
2023-01-29T10:08:39.221Z,98010.66
2023-01-29T10:17:02.727Z,98004.03
2023-01-29T10:37:44.517Z,98003.78
2023-01-29T10:39:05.793Z,98002.19
2023-01-29T10:47:43.188Z,97992.16
2023-01-29T11:00:38.527Z,97973.94
2023-01-29T11:05:55.457Z,97958.28
2023-01-29T11:06:51.667Z,97967.13
2023-01-29T11:15:37.719Z,97964.56
2023-01-29T11:17:27.987Z,97955.53
2023-01-29T11:20:03.138Z,97949.16
2023-01-29T11:24:16.569Z,97951.00
2023-01-29T11:26:05.052Z,97966.44
2023-01-29T11:27:54.680Z,97961.84
2023-01-29T11:35:43.070Z,97957.06
2023-01-29T11:48:51.167Z,97924.31
2023-01-29T11:50:28.485Z,97909.69
2023-01-29T11:52:16.229Z,97912.91
2023-01-29T11:55:55.146Z,97906.56
2023-01-29T11:57:30.910Z,97902.84
2023-01-29T11:58:54.950Z,97912.72
2023-01-29T12:00:26.329Z,97903.66
2023-01-29T12:01:57.559Z,97901.00
2023-01-29T12:06:13.403Z,97881.84
2023-01-29T12:07:55.454Z,97882.13
2023-01-29T12:09:33.660Z,97875.97
2023-01-29T12:11:11.423Z,97873.59
2023-01-29T12:12:43.711Z,97878.38
2023-01-29T12:16:23.520Z,97875.22
2023-01-29T12:18:09.034Z,97876.09
2023-01-29T12:19:51.755Z,97866.75
2023-01-29T12:21:35.580Z,97860.66
2023-01-29T12:23:42.149Z,97854.81
2023-01-29T12:25:25.903Z,97855.31
2023-01-29T12:27:01.827Z,97859.84
2023-01-29T12:28:53.040Z,97859.56
2023-01-29T12:30:24.293Z,97857.13
2023-01-29T12:32:28.087Z,97866.41
2023-01-29T12:34:35.186Z,97860.81
2023-01-29T12:36:19.156Z,97858.16
2023-01-29T12:37:53.836Z,97852.84
2023-01-29T12:40:12.200Z,97852.31
2023-01-29T12:41:58.658Z,97856.84
2023-01-29T12:43:30.162Z,97845.94
2023-01-29T12:45:04.619Z,97848.59
2023-01-29T12:46:45.140Z,97840.63
2023-01-29T12:48:50.896Z,97841.97
2023-01-29T12:56:45.315Z,97832.59
2023-01-29T12:58:25.632Z,97831.00
2023-01-29T13:01:28.128Z,97828.06
2023-01-29T13:03:17.217Z,97824.09
2023-01-29T13:05:04.329Z,97821.16
2023-01-29T13:15:31.846Z,97813.38
2023-01-29T13:17:30.502Z,97808.31
2023-01-29T13:19:10.426Z,97809.91
2023-01-29T13:20:47.143Z,97807.53
2023-01-29T13:26:31.656Z,97807.78
2023-01-29T13:28:19.714Z,97801.38
2023-01-29T13:30:09.902Z,97807.00
2023-01-29T13:32:05.491Z,97807.78
2023-01-29T13:37:26.616Z,97799.56
2023-01-29T13:39:03.787Z,97795.31
2023-01-29T13:40:35.089Z,97792.66
2023-01-29T13:46:06.234Z,97797.41
2023-01-29T13:47:49.409Z,97803.00
2023-01-29T13:49:30.366Z,97815.78
2023-01-29T13:51:21.894Z,97808.34
2023-01-29T13:52:54.657Z,97815.28
2023-01-29T14:21:24.512Z,97787.03
2023-01-29T14:23:00.550Z,97779.06
2023-01-29T14:24:38.348Z,97782.56
2023-01-29T14:26:06.624Z,97786.53
2023-01-29T14:27:33.383Z,97787.59
2023-01-29T14:29:04.841Z,97786.84
2023-01-29T14:30:32.487Z,97781.50
2023-01-29T14:32:09.668Z,97787.88
2023-01-29T14:34:10.637Z,97793.75
2023-01-29T14:35:40.609Z,97782.84
2023-01-29T14:37:22.399Z,97782.88
2023-01-29T14:38:53.778Z,97782.34
2023-01-29T14:40:27.574Z,97779.41
2023-01-29T14:41:52.293Z,97779.16
2023-01-29T14:43:19.984Z,97774.88
2023-01-29T14:45:22.492Z,97770.38
2023-01-29T14:46:56.867Z,97766.63
2023-01-29T14:50:50.902Z,97778.13
2023-01-29T14:52:40.671Z,97779.94
2023-01-29T14:54:37.846Z,97775.50
2023-01-29T14:56:17.655Z,97775.22
2023-01-29T14:57:45.748Z,97770.13
2023-01-29T14:59:25.931Z,97776.78
2023-01-29T15:01:10.527Z,97771.22
2023-01-29T15:02:40.974Z,97767.72
2023-01-29T15:04:13.010Z,97771.22
2023-01-29T15:14:41.874Z,97759.19
2023-01-29T15:16:22.065Z,97751.75
2023-01-29T15:28:51.858Z,97754.63
2023-01-29T15:43:35.047Z,97752.75
2023-01-29T15:45:50.627Z,97756.47
2023-01-29T15:47:27.887Z,97747.94
2023-01-29T15:51:55.884Z,97753.81
2023-01-29T15:58:27.253Z,97745.56
2023-01-29T16:15:15.838Z,97750.81
2023-01-29T16:54:18.990Z,97747.63
2023-01-29T17:01:45.412Z,97758.06
2023-01-29T18:27:53.498Z,97732.53
2023-01-29T18:54:34.211Z,97728.56
2023-01-29T19:13:12.931Z,97729.66
2023-01-29T19:55:57.365Z,97736.28
2023-01-29T20:19:46.439Z,97725.84
2023-01-29T20:21:12.412Z,97725.34
2023-01-29T20:23:09.687Z,97721.06
2023-01-29T20:24:34.130Z,97717.84
2023-01-29T20:26:00.825Z,97728.50
2023-01-29T20:27:22.976Z,97721.59
2023-01-29T20:28:58.890Z,97714.66
2023-01-29T20:30:20.564Z,97711.75
2023-01-29T20:31:42.563Z,97711.19
2023-01-29T20:33:05.158Z,97711.19
2023-01-29T20:34:28.950Z,97713.84
2023-01-29T20:35:58.142Z,97700.81
2023-01-29T20:37:20.130Z,97702.66
2023-01-29T20:38:58.011Z,97698.94
2023-01-29T20:40:22.431Z,97700.31
2023-01-29T20:42:19.062Z,97701.88
2023-01-29T20:43:43.254Z,97712.03
2023-01-29T20:45:17.919Z,97705.63
2023-01-29T20:46:42.627Z,97705.91
2023-01-29T20:48:30.379Z,97693.16
2023-01-29T20:50:02.687Z,97689.66
2023-01-29T20:51:31.781Z,97693.69
2023-01-29T20:55:02.866Z,97685.41
2023-01-29T20:56:37.412Z,97686.50
2023-01-29T20:58:05.525Z,97681.16
2023-01-29T20:59:31.429Z,97679.31
2023-01-29T21:00:53.326Z,97682.75
2023-01-29T21:02:21.022Z,97679.31
2023-01-29T21:03:43.252Z,97673.97
2023-01-29T21:05:05.711Z,97679.03
2023-01-29T21:07:26.074Z,97669.97
2023-01-29T21:08:27.703Z,97667.88
2023-01-29T21:09:49.100Z,97662.53
2023-01-29T21:11:11.034Z,97664.16
2023-01-29T21:12:32.969Z,97665.19
2023-01-29T21:25:44.494Z,97646.59
2023-01-29T21:36:05.656Z,97628.22
2023-01-29T21:38:21.219Z,97626.88
2023-01-29T21:40:26.218Z,97631.41
2023-01-29T22:11:26.073Z,97660.41
2023-01-29T22:21:05.697Z,97654.81
2023-01-29T22:22:02.252Z,97652.13
2023-01-29T22:23:41.959Z,97651.31
2023-01-29T22:27:53.992Z,97652.66
2023-01-29T22:30:06.981Z,97649.44
2023-01-29T22:53:03.161Z,97618.84
2023-01-29T23:03:21.910Z,97589.31
2023-01-29T23:04:56.403Z,97579.75
2023-01-29T23:06:31.097Z,97574.97
2023-01-29T23:25:53.348Z,97551.56
2023-01-29T23:30:00.794Z,97548.88
2023-01-29T23:40:04.135Z,97519.84
2023-01-29T23:44:12.196Z,97513.22
2023-01-29T23:46:10.606Z,97514.28
2023-01-29T23:47:50.213Z,97499.63
2023-01-29T23:51:57.119Z,97490.06
